KMTO/MTO METAR and TAF weather

Enter ICAO airport designator
Station Type Date Time Source
KMTO METAR 2021/01/16 02:53 UTC NOAA

KMTO 160253Z AUTO 16004KT 10SM BKN011 OVC026 M01/M02 A2958 RMK AO2 CIG 007V013 SLP024 60000 T10061017 51006


Station Type Date Time Source
KMTO Decoded METAR 2021/01/16 02:53 UTC NOAA

MATTOON/CHARLESTON COLES CO, IL, United States (KMTO) 39-28N 88-16W 214M
Jan 15, 2021 - 09:53 PM EST / 2021.01.16 0253 UTC
Wind: from the SSE (160 degrees) at 5 MPH (4 KT):0
Visibility: 10 mile(s):0
Sky conditions: overcast
Temperature: 30.9 F (-0.6 C)
Windchill: 26 F (-3 C):1
Dew Point: 28.9 F (-1.7 C)
Relative Humidity: 92%
Pressure (altimeter): 29.58 in. Hg (1001 hPa)
Pressure tendency: 0.02 inches (0.6 hPa) higher than three hours ago
ob: KMTO 160253Z AUTO 16004KT 10SM BKN011 OVC026 M01/M02 A2958 RMK AO2 CIG 007V013 SLP024 60000 T10061017 51006
cycle: 3

Station Type Date Time Source
KMTO TAF UTC NOAA

Error!

Example: see airport list